createdAt,value
2018-06-02T00:04:20.285Z,48.30
2018-06-02T00:09:22.841Z,51.07
2018-06-02T00:14:25.359Z,54.53
2018-06-02T00:19:27.900Z,52.37
2018-06-02T00:24:30.373Z,53.13
2018-06-02T00:29:32.886Z,53.93
2018-06-02T00:34:35.377Z,54.13
2018-06-02T00:39:37.884Z,54.67
2018-06-02T00:44:40.365Z,57.03
2018-06-02T00:49:42.899Z,55.97
2018-06-02T00:54:57.415Z,54.67
2018-06-02T01:00:00.000Z,53.63
2018-06-02T01:05:02.493Z,55.90
2018-06-02T01:10:05.033Z,51.23
2018-06-02T01:15:07.528Z,61.33
2018-06-02T01:20:10.034Z,62.87
2018-06-02T01:25:12.932Z,63.60
2018-06-02T01:30:15.711Z,53.53
2018-06-02T01:35:20.054Z,54.30
2018-06-02T01:40:22.580Z,57.77
2018-06-02T01:45:25.063Z,61.77
2018-06-02T01:50:27.576Z,58.40
2018-06-02T01:55:30.088Z,58.30
2018-06-02T02:00:32.592Z,59.13
2018-06-02T02:05:35.085Z,53.67
2018-06-02T02:10:37.592Z,55.20
2018-06-02T02:15:40.114Z,54.43
2018-06-02T02:20:42.645Z,52.67
2018-06-02T02:25:45.195Z,51.03
2018-06-02T02:30:47.725Z,52.30
2018-06-02T02:35:50.239Z,49.87
2018-06-02T02:40:52.750Z,50.53
2018-06-02T02:45:55.245Z,47.60
2018-06-02T02:50:57.773Z,49.43
2018-06-02T02:56:00.274Z,49.17
2018-06-02T03:01:02.724Z,49.73
2018-06-02T03:06:05.254Z,51.17
2018-06-02T03:11:07.759Z,46.60
2018-06-02T03:16:10.270Z,46.87
2018-06-02T03:21:12.766Z,47.50
2018-06-02T03:26:15.279Z,45.57
2018-06-02T03:31:18.001Z,47.00
2018-06-02T03:36:20.561Z,49.57
2018-06-02T03:41:23.108Z,48.27
2018-06-02T03:46:25.633Z,47.03
2018-06-02T03:51:28.222Z,46.00
2018-06-02T03:56:30.710Z,41.80
2018-06-02T04:01:33.201Z,42.53
2018-06-02T04:06:35.704Z,44.57
2018-06-02T04:11:38.249Z,42.03
2018-06-02T04:16:40.755Z,41.57
2018-06-02T04:21:43.288Z,41.37
2018-06-02T04:26:46.649Z,39.57
2018-06-02T04:31:49.166Z,41.00
2018-06-02T04:36:51.708Z,37.90
2018-06-02T04:41:54.282Z,34.90
2018-06-02T04:46:58.030Z,34.77
2018-06-02T04:52:00.551Z,33.07
2018-06-02T04:57:03.174Z,35.23
2018-06-02T05:02:05.670Z,32.17
2018-06-02T05:07:08.181Z,34.03
2018-06-02T05:12:10.725Z,33.03
2018-06-02T05:17:13.251Z,31.37
2018-06-02T05:22:15.784Z,31.93
2018-06-02T05:27:18.451Z,30.30
2018-06-02T05:32:21.349Z,29.80
2018-06-02T05:37:23.942Z,29.30
2018-06-02T05:42:26.550Z,26.53
2018-06-02T05:47:29.050Z,25.80
2018-06-02T05:52:31.576Z,23.47
2018-06-02T05:57:34.073Z,23.57
2018-06-02T06:02:36.604Z,19.57
2018-06-02T06:07:39.137Z,20.83
2018-06-02T06:12:42.765Z,19.90
2018-06-02T06:17:45.443Z,20.97
2018-06-02T06:22:48.049Z,20.23
2018-06-02T06:27:50.556Z,20.03
2018-06-02T06:32:53.097Z,20.37
2018-06-02T06:37:55.605Z,20.57
2018-06-02T06:42:58.153Z,21.77
2018-06-02T06:48:00.642Z,20.53
2018-06-02T06:53:03.146Z,21.27
2018-06-02T06:58:05.625Z,21.23
2018-06-02T07:03:08.111Z,19.40
2018-06-02T07:08:10.666Z,20.37
2018-06-02T07:13:13.757Z,20.03
2018-06-02T07:18:16.352Z,20.60
2018-06-02T07:23:18.873Z,20.90
2018-06-02T07:28:21.451Z,21.33
2018-06-02T07:33:23.915Z,20.37
2018-06-02T07:38:27.418Z,20.83
2018-06-02T07:43:29.958Z,21.60
2018-06-02T07:48:32.473Z,21.13
2018-06-02T07:53:35.103Z,20.60
2018-06-02T07:58:37.635Z,19.83
2018-06-02T08:03:40.128Z,21.05
2018-06-02T08:08:42.910Z,21.80
2018-06-02T08:13:45.515Z,21.07
2018-06-02T08:18:48.129Z,19.98
2018-06-02T08:23:50.694Z,23.05
2018-06-02T08:28:53.232Z,32.65
2018-06-02T08:33:55.780Z,35.17
2018-06-02T08:38:58.288Z,35.23
2018-06-02T08:44:00.908Z,30.77
2018-06-02T08:49:03.411Z,35.13
2018-06-02T08:54:05.896Z,35.63
2018-06-02T08:59:08.393Z,32.97
2018-06-02T09:04:10.889Z,34.20
2018-06-02T09:09:13.499Z,30.00
2018-06-02T09:14:16.085Z,30.97
2018-06-02T09:19:18.673Z,30.85
2018-06-02T09:24:21.428Z,32.70
2018-06-02T09:29:23.970Z,33.97
2018-06-02T09:34:26.514Z,32.13
2018-06-02T09:39:28.974Z,31.73
2018-06-02T09:44:31.474Z,32.38
2018-06-02T09:49:34.037Z,30.23
2018-06-02T09:54:36.501Z,30.48
2018-06-02T09:59:39.009Z,31.37
2018-06-02T10:04:41.953Z,28.93
2018-06-02T10:09:45.261Z,28.03
2018-06-02T10:14:47.785Z,22.37
2018-06-02T10:19:50.313Z,25.17
2018-06-02T10:24:52.848Z,21.50
2018-06-02T10:29:55.368Z,23.80
2018-06-02T10:34:57.899Z,27.13
2018-06-02T10:40:00.371Z,26.07
2018-06-02T10:45:02.878Z,25.13
2018-06-02T10:50:05.540Z,23.10
2018-06-02T10:55:08.047Z,25.03
2018-06-02T11:00:10.635Z,25.37
2018-06-02T11:05:13.100Z,20.97
2018-06-02T11:10:15.621Z,28.93
2018-06-02T11:15:18.181Z,32.37
2018-06-02T11:20:20.643Z,33.23
2018-06-02T11:25:23.150Z,31.17
2018-06-02T11:30:25.645Z,28.57
2018-06-02T11:35:28.138Z,29.47
2018-06-02T11:40:30.667Z,26.10
2018-06-02T11:45:33.186Z,24.40
2018-06-02T11:50:35.709Z,23.70
2018-06-02T11:55:38.190Z,22.27
2018-06-02T12:00:40.699Z,24.83
2018-06-02T12:05:43.228Z,23.07
2018-06-02T12:10:45.941Z,25.87
2018-06-02T12:15:48.498Z,26.90
2018-06-02T12:20:51.022Z,25.80
2018-06-02T12:25:53.583Z,29.83
2018-06-02T12:30:56.071Z,29.80
2018-06-02T12:35:58.627Z,28.60
2018-06-02T12:41:01.122Z,27.83
2018-06-02T12:46:03.619Z,26.17
2018-06-02T12:51:06.154Z,26.03
2018-06-02T12:56:08.638Z,25.60
2018-06-02T13:01:11.173Z,23.97
2018-06-02T13:06:13.791Z,21.27
2018-06-02T13:11:16.336Z,26.67
2018-06-02T13:16:18.835Z,26.27
2018-06-02T13:21:21.335Z,26.40
2018-06-02T13:26:23.861Z,24.93
2018-06-02T13:31:33.951Z,23.63
2018-06-02T13:36:36.441Z,24.77
2018-06-02T13:41:38.938Z,24.83
2018-06-02T13:46:42.169Z,26.67
2018-06-02T13:51:45.557Z,26.43
2018-06-02T13:56:48.049Z,28.13
2018-06-02T14:01:50.618Z,26.37
2018-06-02T14:06:53.181Z,24.57
2018-06-02T14:11:55.723Z,25.00
2018-06-02T14:16:58.223Z,23.33
2018-06-02T14:22:00.861Z,21.17
2018-06-02T14:27:03.992Z,19.13
2018-06-02T14:32:06.531Z,18.70
2018-06-02T14:37:09.168Z,18.17
2018-06-02T14:42:11.565Z,16.80
2018-06-02T14:47:14.194Z,14.17
2018-06-02T14:52:16.805Z,15.23
2018-06-02T14:57:19.363Z,14.70
2018-06-02T15:02:21.979Z,15.30
2018-06-02T15:07:24.546Z,15.50
2018-06-02T15:12:27.094Z,13.70
2018-06-02T15:17:29.594Z,14.90
2018-06-02T15:22:32.095Z,14.23
2018-06-02T15:27:34.602Z,13.87
2018-06-02T15:32:37.098Z,13.70
2018-06-02T15:37:39.693Z,15.90
2018-06-02T15:42:42.183Z,16.00
2018-06-02T15:47:44.740Z,14.93
2018-06-02T15:52:47.286Z,16.23
2018-06-02T15:57:49.886Z,19.23
2018-06-02T16:02:52.462Z,18.87
2018-06-02T16:07:55.348Z,20.90
2018-06-02T16:12:57.954Z,19.90
2018-06-02T16:18:00.445Z,21.93
2018-06-02T16:23:02.936Z,21.33
2018-06-02T16:28:05.432Z,21.80
2018-06-02T16:33:07.992Z,21.50
2018-06-02T16:38:10.512Z,22.60
2018-06-02T16:43:13.087Z,22.47
2018-06-02T16:48:15.603Z,20.53
2018-06-02T16:53:18.148Z,21.57
2018-06-02T16:58:20.668Z,21.50
2018-06-02T17:03:23.350Z,19.37
2018-06-02T17:08:25.848Z,22.17
2018-06-02T17:13:28.420Z,23.73
2018-06-02T17:18:30.907Z,21.67
2018-06-02T17:23:33.410Z,21.10
2018-06-02T17:28:35.920Z,21.37
2018-06-02T17:33:38.524Z,19.60
2018-06-02T17:38:40.988Z,20.67
2018-06-02T17:43:43.524Z,18.80
2018-06-02T17:48:46.186Z,21.47
2018-06-02T17:53:48.733Z,21.43
2018-06-02T17:58:51.260Z,21.40
2018-06-02T18:03:53.924Z,21.53
2018-06-02T18:08:56.412Z,22.90
2018-06-02T18:13:59.124Z,20.50
2018-06-02T18:19:01.598Z,21.23
2018-06-02T18:24:04.144Z,20.13
2018-06-02T18:29:06.664Z,21.13
2018-06-02T18:34:09.173Z,19.63
2018-06-02T18:39:11.728Z,22.83
2018-06-02T18:44:14.682Z,22.63
2018-06-02T18:49:17.228Z,23.00
2018-06-02T18:54:19.750Z,23.37
2018-06-02T18:59:22.406Z,22.07
2018-06-02T19:04:25.436Z,22.60
2018-06-02T19:09:28.044Z,22.70
2018-06-02T19:14:30.826Z,21.93
2018-06-02T19:19:34.361Z,23.00
2018-06-02T19:24:36.907Z,22.10
2018-06-02T19:29:39.688Z,22.53
2018-06-02T19:34:43.075Z,21.73
2018-06-02T19:39:45.879Z,22.63
2018-06-02T19:44:49.444Z,21.73
2018-06-02T19:49:52.070Z,23.40
2018-06-02T19:54:55.391Z,22.63
2018-06-02T19:59:58.611Z,23.70
2018-06-02T20:05:02.122Z,23.80
2018-06-02T20:10:04.879Z,22.50
2018-06-02T20:15:08.270Z,23.70
2018-06-02T20:20:10.761Z,23.53
2018-06-02T20:25:13.283Z,22.17
2018-06-02T20:30:16.041Z,21.87
2018-06-02T20:35:18.782Z,23.23
2018-06-02T20:40:21.698Z,22.37
2018-06-02T20:45:26.825Z,24.30
2018-06-02T20:50:30.672Z,23.73
2018-06-02T20:55:33.144Z,22.47
2018-06-02T21:00:37.374Z,24.13
2018-06-02T21:05:42.768Z,24.53
2018-06-02T21:10:45.663Z,23.50
2018-06-02T21:15:48.343Z,24.63
2018-06-02T21:20:52.781Z,23.90
2018-06-02T21:25:55.893Z,23.27
2018-06-02T21:30:58.544Z,23.87
2018-06-02T21:36:01.036Z,23.90
2018-06-02T21:41:04.942Z,24.13
2018-06-02T21:46:09.978Z,24.13
2018-06-02T21:51:14.812Z,25.33
2018-06-02T21:56:18.139Z,26.70
2018-06-02T22:01:20.822Z,24.93
2018-06-02T22:06:23.688Z,26.30
2018-06-02T22:11:26.219Z,27.83
2018-06-02T22:16:28.935Z,26.90
2018-06-02T22:21:33.257Z,26.53
2018-06-02T22:26:35.766Z,27.17
2018-06-02T22:31:38.251Z,26.10
2018-06-02T22:36:40.765Z,26.97
2018-06-02T22:41:43.284Z,25.63
2018-06-02T22:46:45.808Z,26.50
2018-06-02T22:51:57.132Z,26.97
2018-06-02T22:56:59.604Z,27.30
2018-06-02T23:02:02.144Z,27.40
2018-06-02T23:07:04.605Z,27.03
2018-06-02T23:12:07.088Z,26.30
2018-06-02T23:17:09.566Z,28.27
2018-06-02T23:28:15.583Z,29.47
2018-06-02T23:33:19.115Z,30.07
2018-06-02T23:38:22.307Z,31.73
2018-06-02T23:43:25.472Z,30.67
2018-06-02T23:48:28.717Z,28.13
2018-06-02T23:53:31.911Z,30.80
2018-06-02T23:58:35.015Z,29.00
